<?xml version="1.0" encoding="UTF-8" standalone="no" ?>
<gpx xmlns="http://www.topografix.com/GPX/1/1" xmlns:xsi="http://www.w3.org/2001/XMLSchema-instance" xsi:schemaLocation="http://www.topografix.com/GPX/1/1 http://www.topografix.com/GPX/1/1/gpx.xsd" version="1.1" creator="VisuGPX - https://www.visugpx.com">
  <metadata>
    <name>rando 5 km</name>
    <desc><![CDATA[rando de 5km lors de la 26eme randonnée de l'escrebieux à izel les equerchin]]></desc>
  </metadata>
  <trk>
    <name><![CDATA[rando 5 km_1]]></name>
    <trkseg>
      <trkpt lat="50.36172" lon="2.94949">
        <ele>35</ele>
        <time>2016-04-29T18:51:03+02:00</time>
      </trkpt>
      <trkpt lat="50.36195" lon="2.94977">
        <ele>35</ele>
        <time>2016-04-29T18:51:08+02:00</time>
      </trkpt>
      <trkpt lat="50.36176" lon="2.95006">
        <ele>35</ele>
        <time>2016-04-29T18:51:13+02:00</time>
      </trkpt>
      <trkpt lat="50.36148" lon="2.95046">
        <ele>35</ele>
        <time>2016-04-29T18:51:18+02:00</time>
      </trkpt>
      <trkpt lat="50.36097" lon="2.95114">
        <ele>37</ele>
        <time>2016-04-29T18:51:23+02:00</time>
      </trkpt>
      <trkpt lat="50.36128" lon="2.95148">
        <ele>37</ele>
        <time>2016-04-29T18:51:28+02:00</time>
      </trkpt>
      <trkpt lat="50.36156" lon="2.95194">
        <ele>37</ele>
        <time>2016-04-29T18:51:33+02:00</time>
      </trkpt>
      <trkpt lat="50.36183" lon="2.95266">
        <ele>37</ele>
        <time>2016-04-29T18:51:38+02:00</time>
      </trkpt>
      <trkpt lat="50.36124" lon="2.95304">
        <ele>39</ele>
        <time>2016-04-29T18:51:43+02:00</time>
      </trkpt>
      <trkpt lat="50.36032" lon="2.95338">
        <ele>41</ele>
        <time>2016-04-29T18:51:48+02:00</time>
      </trkpt>
      <trkpt lat="50.35926" lon="2.95354">
        <ele>43</ele>
        <time>2016-04-29T18:51:53+02:00</time>
      </trkpt>
      <trkpt lat="50.35924" lon="2.95356">
        <ele>43</ele>
        <time>2016-04-29T18:51:58+02:00</time>
      </trkpt>
      <trkpt lat="50.35914" lon="2.95341">
        <ele>43</ele>
        <time>2016-04-29T18:52:03+02:00</time>
      </trkpt>
      <trkpt lat="50.35868" lon="2.95365">
        <ele>43</ele>
        <time>2016-04-29T18:52:08+02:00</time>
      </trkpt>
      <trkpt lat="50.35784" lon="2.95585">
        <ele>44</ele>
        <time>2016-04-29T18:52:13+02:00</time>
      </trkpt>
      <trkpt lat="50.35928" lon="2.95773">
        <ele>42</ele>
        <time>2016-04-29T18:52:18+02:00</time>
      </trkpt>
      <trkpt lat="50.36077" lon="2.95936">
        <ele>40</ele>
        <time>2016-04-29T18:52:23+02:00</time>
      </trkpt>
      <trkpt lat="50.36267" lon="2.95871">
        <ele>34</ele>
        <time>2016-04-29T18:52:28+02:00</time>
      </trkpt>
      <trkpt lat="50.36359" lon="2.95835">
        <ele>32</ele>
        <time>2016-04-29T18:52:33+02:00</time>
      </trkpt>
      <trkpt lat="50.36392" lon="2.95824">
        <ele>31</ele>
        <time>2016-04-29T18:52:38+02:00</time>
      </trkpt>
      <trkpt lat="50.36425" lon="2.95824">
        <ele>31</ele>
        <time>2016-04-29T18:52:43+02:00</time>
      </trkpt>
      <trkpt lat="50.36433" lon="2.95844">
        <ele>32</ele>
        <time>2016-04-29T18:52:48+02:00</time>
      </trkpt>
      <trkpt lat="50.36448" lon="2.95893">
        <ele>32</ele>
        <time>2016-04-29T18:52:53+02:00</time>
      </trkpt>
      <trkpt lat="50.36458" lon="2.95959">
        <ele>33</ele>
        <time>2016-04-29T18:52:58+02:00</time>
      </trkpt>
      <trkpt lat="50.36478" lon="2.96057">
        <ele>32</ele>
        <time>2016-04-29T18:53:03+02:00</time>
      </trkpt>
      <trkpt lat="50.36499" lon="2.9615">
        <ele>31</ele>
        <time>2016-04-29T18:53:08+02:00</time>
      </trkpt>
      <trkpt lat="50.36527" lon="2.96146">
        <ele>32</ele>
        <time>2016-04-29T18:53:13+02:00</time>
      </trkpt>
      <trkpt lat="50.36547" lon="2.96235">
        <ele>32</ele>
        <time>2016-04-29T18:53:18+02:00</time>
      </trkpt>
      <trkpt lat="50.36577" lon="2.96319">
        <ele>33</ele>
        <time>2016-04-29T18:53:23+02:00</time>
      </trkpt>
      <trkpt lat="50.36627" lon="2.96426">
        <ele>34</ele>
        <time>2016-04-29T18:53:28+02:00</time>
      </trkpt>
      <trkpt lat="50.36651" lon="2.96491">
        <ele>36</ele>
        <time>2016-04-29T18:53:33+02:00</time>
      </trkpt>
      <trkpt lat="50.36659" lon="2.96527">
        <ele>37</ele>
        <time>2016-04-29T18:53:38+02:00</time>
      </trkpt>
      <trkpt lat="50.36662" lon="2.96571">
        <ele>38</ele>
        <time>2016-04-29T18:53:43+02:00</time>
      </trkpt>
      <trkpt lat="50.36663" lon="2.96679">
        <ele>38</ele>
        <time>2016-04-29T18:53:48+02:00</time>
      </trkpt>
      <trkpt lat="50.36661" lon="2.9673">
        <ele>38</ele>
        <time>2016-04-29T18:53:53+02:00</time>
      </trkpt>
      <trkpt lat="50.36665" lon="2.96794">
        <ele>38</ele>
        <time>2016-04-29T18:53:58+02:00</time>
      </trkpt>
      <trkpt lat="50.3676" lon="2.97409">
        <ele>34</ele>
        <time>2016-04-29T18:54:03+02:00</time>
      </trkpt>
      <trkpt lat="50.36689" lon="2.97452">
        <ele>32</ele>
        <time>2016-04-29T18:54:08+02:00</time>
      </trkpt>
      <trkpt lat="50.36664" lon="2.97458">
        <ele>31</ele>
        <time>2016-04-29T18:54:13+02:00</time>
      </trkpt>
      <trkpt lat="50.36644" lon="2.97473">
        <ele>31</ele>
        <time>2016-04-29T18:54:18+02:00</time>
      </trkpt>
      <trkpt lat="50.36585" lon="2.97526">
        <ele>31</ele>
        <time>2016-04-29T18:54:23+02:00</time>
      </trkpt>
      <trkpt lat="50.36542" lon="2.97567">
        <ele>32</ele>
        <time>2016-04-29T18:54:28+02:00</time>
      </trkpt>
      <trkpt lat="50.36506" lon="2.97589">
        <ele>32</ele>
        <time>2016-04-29T18:54:33+02:00</time>
      </trkpt>
      <trkpt lat="50.36461" lon="2.97592">
        <ele>33</ele>
        <time>2016-04-29T18:54:38+02:00</time>
      </trkpt>
      <trkpt lat="50.36454" lon="2.9761">
        <ele>33</ele>
        <time>2016-04-29T18:54:43+02:00</time>
      </trkpt>
      <trkpt lat="50.36451" lon="2.97657">
        <ele>33</ele>
        <time>2016-04-29T18:54:48+02:00</time>
      </trkpt>
      <trkpt lat="50.36432" lon="2.97726">
        <ele>32</ele>
        <time>2016-04-29T18:54:53+02:00</time>
      </trkpt>
      <trkpt lat="50.36289" lon="2.97787">
        <ele>33</ele>
        <time>2016-04-29T18:54:58+02:00</time>
      </trkpt>
      <trkpt lat="50.36276" lon="2.97771">
        <ele>33</ele>
        <time>2016-04-29T18:55:03+02:00</time>
      </trkpt>
      <trkpt lat="50.36266" lon="2.97748">
        <ele>33</ele>
        <time>2016-04-29T18:55:08+02:00</time>
      </trkpt>
      <trkpt lat="50.36262" lon="2.97724">
        <ele>33</ele>
        <time>2016-04-29T18:55:13+02:00</time>
      </trkpt>
      <trkpt lat="50.36265" lon="2.97693">
        <ele>33</ele>
        <time>2016-04-29T18:55:18+02:00</time>
      </trkpt>
      <trkpt lat="50.36282" lon="2.97582">
        <ele>35</ele>
        <time>2016-04-29T18:55:23+02:00</time>
      </trkpt>
      <trkpt lat="50.36292" lon="2.97546">
        <ele>35</ele>
        <time>2016-04-29T18:55:28+02:00</time>
      </trkpt>
      <trkpt lat="50.36295" lon="2.97496">
        <ele>36</ele>
        <time>2016-04-29T18:55:33+02:00</time>
      </trkpt>
      <trkpt lat="50.36287" lon="2.97399">
        <ele>36</ele>
        <time>2016-04-29T18:55:38+02:00</time>
      </trkpt>
      <trkpt lat="50.36263" lon="2.97229">
        <ele>37</ele>
        <time>2016-04-29T18:55:43+02:00</time>
      </trkpt>
      <trkpt lat="50.36239" lon="2.97051">
        <ele>36</ele>
        <time>2016-04-29T18:55:48+02:00</time>
      </trkpt>
      <trkpt lat="50.36231" lon="2.96961">
        <ele>37</ele>
        <time>2016-04-29T18:55:53+02:00</time>
      </trkpt>
      <trkpt lat="50.36235" lon="2.96875">
        <ele>37</ele>
        <time>2016-04-29T18:55:58+02:00</time>
      </trkpt>
      <trkpt lat="50.36382" lon="2.96838">
        <ele>32</ele>
        <time>2016-04-29T18:56:03+02:00</time>
      </trkpt>
      <trkpt lat="50.36405" lon="2.96831">
        <ele>31</ele>
        <time>2016-04-29T18:56:08+02:00</time>
      </trkpt>
      <trkpt lat="50.36427" lon="2.96811">
        <ele>31</ele>
        <time>2016-04-29T18:56:13+02:00</time>
      </trkpt>
      <trkpt lat="50.36662" lon="2.96734">
        <ele>38</ele>
        <time>2016-04-29T18:56:18+02:00</time>
      </trkpt>
      <trkpt lat="50.36661" lon="2.96721">
        <ele>38</ele>
        <time>2016-04-29T18:56:23+02:00</time>
      </trkpt>
      <trkpt lat="50.36664" lon="2.96678">
        <ele>38</ele>
        <time>2016-04-29T18:56:28+02:00</time>
      </trkpt>
      <trkpt lat="50.36663" lon="2.96602">
        <ele>38</ele>
        <time>2016-04-29T18:56:33+02:00</time>
      </trkpt>
      <trkpt lat="50.36658" lon="2.9653">
        <ele>37</ele>
        <time>2016-04-29T18:56:38+02:00</time>
      </trkpt>
      <trkpt lat="50.3665" lon="2.96491">
        <ele>36</ele>
        <time>2016-04-29T18:56:43+02:00</time>
      </trkpt>
      <trkpt lat="50.36631" lon="2.96435">
        <ele>35</ele>
        <time>2016-04-29T18:56:48+02:00</time>
      </trkpt>
      <trkpt lat="50.36587" lon="2.96337">
        <ele>33</ele>
        <time>2016-04-29T18:56:53+02:00</time>
      </trkpt>
      <trkpt lat="50.36579" lon="2.96322">
        <ele>33</ele>
        <time>2016-04-29T18:56:58+02:00</time>
      </trkpt>
      <trkpt lat="50.36555" lon="2.96241">
        <ele>33</ele>
        <time>2016-04-29T18:57:03+02:00</time>
      </trkpt>
      <trkpt lat="50.36476" lon="2.9586">
        <ele>33</ele>
        <time>2016-04-29T18:57:08+02:00</time>
      </trkpt>
      <trkpt lat="50.3647" lon="2.95777">
        <ele>33</ele>
        <time>2016-04-29T18:57:13+02:00</time>
      </trkpt>
      <trkpt lat="50.36471" lon="2.95755">
        <ele>33</ele>
        <time>2016-04-29T18:57:18+02:00</time>
      </trkpt>
      <trkpt lat="50.36474" lon="2.95704">
        <ele>34</ele>
        <time>2016-04-29T18:57:23+02:00</time>
      </trkpt>
      <trkpt lat="50.3647" lon="2.95652">
        <ele>34</ele>
        <time>2016-04-29T18:57:28+02:00</time>
      </trkpt>
      <trkpt lat="50.36459" lon="2.956">
        <ele>34</ele>
        <time>2016-04-29T18:57:33+02:00</time>
      </trkpt>
      <trkpt lat="50.36437" lon="2.95547">
        <ele>35</ele>
        <time>2016-04-29T18:57:38+02:00</time>
      </trkpt>
      <trkpt lat="50.36422" lon="2.95516">
        <ele>35</ele>
        <time>2016-04-29T18:57:43+02:00</time>
      </trkpt>
      <trkpt lat="50.36367" lon="2.95327">
        <ele>35</ele>
        <time>2016-04-29T18:57:48+02:00</time>
      </trkpt>
      <trkpt lat="50.36343" lon="2.95176">
        <ele>35</ele>
        <time>2016-04-29T18:57:53+02:00</time>
      </trkpt>
      <trkpt lat="50.3634" lon="2.95159">
        <ele>35</ele>
        <time>2016-04-29T18:57:58+02:00</time>
      </trkpt>
      <trkpt lat="50.36322" lon="2.95117">
        <ele>36</ele>
        <time>2016-04-29T18:58:03+02:00</time>
      </trkpt>
      <trkpt lat="50.36286" lon="2.95075">
        <ele>35</ele>
        <time>2016-04-29T18:58:08+02:00</time>
      </trkpt>
      <trkpt lat="50.36173" lon="2.94948">
        <ele>35</ele>
        <time>2016-04-29T18:58:13+02:00</time>
      </trkpt>
    </trkseg>
  </trk>
</gpx>